createdAt,value
2017-04-30T00:01:55.392Z,10.58
2017-04-30T00:04:22.913Z,10.71
2017-04-30T00:06:50.475Z,10.51
2017-04-30T00:09:17.982Z,10.72
2017-04-30T00:11:45.649Z,10.63
2017-04-30T00:14:13.163Z,10.60
2017-04-30T00:16:40.672Z,10.58
2017-04-30T00:19:08.324Z,10.59
2017-04-30T00:21:35.843Z,10.63
2017-04-30T00:24:03.429Z,10.68
2017-04-30T00:26:31.000Z,10.72
2017-04-30T00:28:58.718Z,10.58
2017-04-30T00:31:26.235Z,10.58
2017-04-30T00:33:53.758Z,10.72
2017-04-30T00:36:21.327Z,10.77
2017-04-30T00:38:48.951Z,10.69
2017-04-30T00:41:16.716Z,10.51
2017-04-30T00:43:44.240Z,10.34
2017-04-30T00:46:11.758Z,10.18
2017-04-30T00:48:39.336Z,10.37
2017-04-30T00:51:06.943Z,10.44
2017-04-30T00:53:34.765Z,10.48
2017-04-30T00:56:02.281Z,10.36
2017-04-30T00:58:29.802Z,10.22
2017-04-30T01:00:57.407Z,10.08
2017-04-30T01:03:24.951Z,10.09
2017-04-30T01:05:52.511Z,10.22
2017-04-30T01:08:20.059Z,10.27
2017-04-30T01:10:47.880Z,10.15
2017-04-30T01:13:15.435Z,9.95
2017-04-30T01:15:42.948Z,10.06
2017-04-30T01:18:10.497Z,10.18
2017-04-30T01:20:38.311Z,10.26
2017-04-30T01:23:05.828Z,10.23
2017-04-30T01:25:33.343Z,10.17
2017-04-30T01:28:00.898Z,10.03
2017-04-30T01:30:28.443Z,10.15
2017-04-30T01:32:56.033Z,10.16
2017-04-30T01:35:23.552Z,10.15
2017-04-30T01:37:51.079Z,9.98
2017-04-30T01:40:19.688Z,10.19
2017-04-30T01:42:47.255Z,10.03
2017-04-30T01:45:14.819Z,10.01
2017-04-30T01:47:42.441Z,9.86
2017-04-30T01:50:10.028Z,10.00
2017-04-30T01:52:37.584Z,9.87
2017-04-30T01:55:05.082Z,9.94
2017-04-30T01:57:32.639Z,10.23
2017-04-30T02:00:00.163Z,10.18
2017-04-30T02:02:27.739Z,10.21
2017-04-30T02:04:55.260Z,10.02
2017-04-30T02:07:22.777Z,9.96
2017-04-30T02:09:50.304Z,9.98
2017-04-30T02:12:17.831Z,10.07
2017-04-30T02:14:45.653Z,9.96
2017-04-30T02:17:13.157Z,10.04
2017-04-30T02:19:40.647Z,10.05
2017-04-30T02:22:08.455Z,10.03
2017-04-30T02:24:35.971Z,10.00
2017-04-30T02:27:03.527Z,10.00
2017-04-30T02:29:31.089Z,9.96
2017-04-30T02:31:58.739Z,9.97
2017-04-30T02:34:26.710Z,9.69
2017-04-30T02:36:54.227Z,9.50
2017-04-30T02:39:21.743Z,9.60
2017-04-30T02:41:49.279Z,9.67
2017-04-30T02:44:16.875Z,9.68
2017-04-30T02:46:44.647Z,9.78
2017-04-30T02:49:12.177Z,9.80
2017-04-30T02:51:39.692Z,9.73
2017-04-30T02:54:07.236Z,9.83
2017-04-30T02:56:34.759Z,9.61
2017-04-30T02:59:02.576Z,9.58
2017-04-30T03:01:30.130Z,9.60
2017-04-30T03:03:57.655Z,9.51
2017-04-30T03:06:25.251Z,9.58
2017-04-30T03:08:52.890Z,9.26
2017-04-30T03:11:20.810Z,9.08
2017-04-30T03:13:48.320Z,9.07
2017-04-30T03:16:15.836Z,9.14
2017-04-30T03:18:43.374Z,9.10
2017-04-30T03:21:10.884Z,9.06
2017-04-30T03:23:38.452Z,9.27
2017-04-30T03:26:05.983Z,9.19
2017-04-30T03:28:33.497Z,9.14
2017-04-30T03:31:01.351Z,9.06
2017-04-30T03:33:28.862Z,9.03
2017-04-30T03:35:56.427Z,8.91
2017-04-30T03:38:35.788Z,8.99
2017-04-30T03:41:15.147Z,8.94
2017-04-30T03:43:54.728Z,8.93
2017-04-30T03:46:33.855Z,8.83
2017-04-30T03:49:13.428Z,8.68
2017-04-30T03:51:52.556Z,8.51
2017-04-30T03:54:31.728Z,8.66
2017-04-30T03:57:11.050Z,8.57
2017-04-30T03:59:50.542Z,8.70
2017-04-30T04:02:29.767Z,8.80
2017-04-30T04:05:08.842Z,8.88
2017-04-30T04:07:48.084Z,8.87
2017-04-30T04:10:27.591Z,8.97
2017-04-30T04:13:06.903Z,9.11
2017-04-30T04:15:46.205Z,9.02
2017-04-30T04:18:25.434Z,8.90
2017-04-30T04:21:04.507Z,8.97
2017-04-30T04:23:43.745Z,9.02
2017-04-30T04:26:22.775Z,9.13
2017-04-30T04:29:02.004Z,9.13
2017-04-30T04:31:41.508Z,9.05
2017-04-30T04:34:20.783Z,9.19
2017-04-30T04:36:59.987Z,9.11
2017-04-30T04:39:39.019Z,9.09
2017-04-30T04:42:18.468Z,9.15
2017-04-30T04:44:57.705Z,9.05
2017-04-30T04:47:36.992Z,9.06
2017-04-30T04:50:16.132Z,9.24
2017-04-30T04:52:55.639Z,9.28
2017-04-30T04:55:35.188Z,9.24
2017-04-30T04:58:14.511Z,9.33
2017-04-30T05:00:53.851Z,9.36
2017-04-30T05:03:33.196Z,9.32
2017-04-30T05:06:12.512Z,9.23
2017-04-30T05:08:52.181Z,9.32
2017-04-30T05:11:31.655Z,9.36
2017-04-30T05:14:10.891Z,9.43
2017-04-30T05:16:50.114Z,9.37
2017-04-30T05:19:29.936Z,9.43
2017-04-30T05:22:09.301Z,9.48
2017-04-30T05:24:48.716Z,9.54
2017-04-30T05:27:28.204Z,9.64
2017-04-30T05:30:07.942Z,9.58
2017-04-30T05:32:47.268Z,9.62
2017-04-30T05:35:27.089Z,9.66
2017-04-30T05:38:06.478Z,9.64
2017-04-30T05:40:45.864Z,9.76
2017-04-30T05:43:25.138Z,9.75
2017-04-30T05:46:04.534Z,9.81
2017-04-30T05:48:43.909Z,9.93
2017-04-30T05:51:23.709Z,9.96
2017-04-30T05:54:03.089Z,9.98
2017-04-30T05:56:42.456Z,10.08
2017-04-30T05:59:21.795Z,10.17
2017-04-30T06:02:01.515Z,10.13
2017-04-30T06:04:40.688Z,10.24
2017-04-30T06:07:20.486Z,10.28
2017-04-30T06:09:59.727Z,10.35
2017-04-30T06:12:39.404Z,10.42
2017-04-30T06:15:18.568Z,10.53
2017-04-30T06:17:58.379Z,10.57
2017-04-30T06:20:37.730Z,10.63
2017-04-30T06:23:17.004Z,10.76
2017-04-30T06:25:56.307Z,10.77
2017-04-30T06:28:35.935Z,10.83
2017-04-30T06:31:15.425Z,10.82
2017-04-30T06:33:55.106Z,10.87
2017-04-30T06:36:34.344Z,10.95
2017-04-30T06:39:14.199Z,11.01
2017-04-30T06:41:53.573Z,11.08
2017-04-30T06:44:33.058Z,11.09
2017-04-30T06:47:12.243Z,11.20
2017-04-30T06:49:52.057Z,11.26
2017-04-30T06:52:31.183Z,11.33
2017-04-30T06:55:11.048Z,11.38
2017-04-30T06:57:50.404Z,11.43
2017-04-30T07:00:30.185Z,11.47
2017-04-30T07:03:09.532Z,11.56
2017-04-30T07:05:49.680Z,11.61
2017-04-30T07:08:28.963Z,11.64
2017-04-30T07:11:08.706Z,11.74
2017-04-30T07:13:47.887Z,11.79
2017-04-30T07:16:27.739Z,11.88
2017-04-30T07:19:07.116Z,11.97
2017-04-30T07:21:46.479Z,12.08
2017-04-30T07:24:25.884Z,12.13
2017-04-30T07:27:05.619Z,12.16
2017-04-30T07:29:44.789Z,12.19
2017-04-30T07:32:24.293Z,12.32
2017-04-30T07:35:03.701Z,12.37
2017-04-30T07:37:43.148Z,12.41
2017-04-30T07:40:22.480Z,12.46
2017-04-30T07:42:50.348Z,12.51
2017-04-30T07:45:17.911Z,12.63
2017-04-30T07:47:45.434Z,12.71
2017-04-30T07:50:12.992Z,12.73
2017-04-30T07:52:40.520Z,12.75
2017-04-30T07:55:08.094Z,12.87
2017-04-30T07:57:35.635Z,12.88
2017-04-30T08:00:03.196Z,12.85
2017-04-30T08:02:30.722Z,13.01
2017-04-30T08:04:58.537Z,13.08
2017-04-30T08:07:26.056Z,13.14
2017-04-30T08:09:53.634Z,13.17
2017-04-30T08:12:21.203Z,13.25
2017-04-30T08:14:48.723Z,13.32
2017-04-30T08:17:16.559Z,13.31
2017-04-30T08:19:44.087Z,13.34
2017-04-30T08:22:11.656Z,13.40
2017-04-30T08:24:39.213Z,13.53
2017-04-30T08:27:06.732Z,13.59
2017-04-30T08:29:34.352Z,13.72
2017-04-30T08:32:01.903Z,13.81
2017-04-30T08:34:30.604Z,13.85
2017-04-30T08:36:58.199Z,14.00
2017-04-30T08:39:25.843Z,14.11
2017-04-30T08:41:53.461Z,14.17
2017-04-30T08:44:20.969Z,14.30
2017-04-30T08:46:48.604Z,14.27
2017-04-30T08:49:16.124Z,14.33
2017-04-30T08:51:44.136Z,14.46
2017-04-30T08:54:11.652Z,14.53
2017-04-30T08:56:39.178Z,14.62
2017-04-30T08:59:06.729Z,14.67
2017-04-30T09:01:34.250Z,14.69
2017-04-30T09:04:01.832Z,14.74
2017-04-30T09:06:29.336Z,14.92
2017-04-30T09:08:57.043Z,15.00
2017-04-30T09:11:24.568Z,15.02
2017-04-30T09:13:52.099Z,15.23
2017-04-30T09:16:19.694Z,15.34
2017-04-30T09:18:47.207Z,15.39
2017-04-30T09:21:14.941Z,15.40
2017-04-30T09:23:42.463Z,15.36
2017-04-30T09:26:09.991Z,15.50
2017-04-30T09:28:37.559Z,15.58
2017-04-30T09:31:05.084Z,15.58
2017-04-30T09:33:32.999Z,15.58
2017-04-30T09:36:00.552Z,15.62
2017-04-30T09:38:28.084Z,15.71
2017-04-30T09:40:55.666Z,15.78
2017-04-30T09:43:23.184Z,15.81
2017-04-30T09:45:50.747Z,15.74
2017-04-30T09:48:18.269Z,15.77
2017-04-30T09:50:46.102Z,15.89
2017-04-30T09:53:13.655Z,15.91
2017-04-30T09:55:41.179Z,16.04
2017-04-30T09:58:08.752Z,16.07
2017-04-30T10:00:36.290Z,16.12
2017-04-30T10:03:03.968Z,16.20
2017-04-30T10:05:31.491Z,16.22
2017-04-30T10:07:59.008Z,16.54
2017-04-30T10:10:26.581Z,16.80
2017-04-30T10:12:54.147Z,16.95
2017-04-30T10:15:21.848Z,16.97
2017-04-30T10:17:49.574Z,17.02
2017-04-30T10:20:17.186Z,17.17
2017-04-30T10:22:44.766Z,17.10
2017-04-30T10:25:12.303Z,17.16
2017-04-30T10:27:40.055Z,17.25
2017-04-30T10:30:07.592Z,17.38
2017-04-30T10:32:35.127Z,17.71
2017-04-30T10:35:02.708Z,17.76
2017-04-30T10:37:30.231Z,17.92
2017-04-30T10:39:57.794Z,18.01
2017-04-30T10:42:25.341Z,17.98
2017-04-30T10:44:53.078Z,17.93
2017-04-30T10:47:20.636Z,17.74
2017-04-30T10:49:48.223Z,17.74
2017-04-30T10:52:15.829Z,17.78
2017-04-30T10:54:43.365Z,18.14
2017-04-30T10:57:10.923Z,18.24
2017-04-30T10:59:38.464Z,18.51
2017-04-30T11:02:06.148Z,18.60
2017-04-30T11:04:33.668Z,18.97
2017-04-30T11:07:01.184Z,19.17
2017-04-30T11:09:28.899Z,19.40
2017-04-30T11:11:56.423Z,19.41
2017-04-30T11:14:23.935Z,19.44
2017-04-30T11:16:51.741Z,19.74
2017-04-30T11:19:19.288Z,19.78
2017-04-30T11:21:46.828Z,19.47
2017-04-30T11:24:14.437Z,19.81
2017-04-30T11:26:41.979Z,20.22
2017-04-30T11:29:09.527Z,20.39
2017-04-30T11:31:37.054Z,20.56
2017-04-30T11:34:05.050Z,20.81
2017-04-30T11:36:32.579Z,20.76
2017-04-30T11:39:00.100Z,20.90
2017-04-30T11:41:27.671Z,21.13
2017-04-30T11:43:55.183Z,20.99
2017-04-30T11:46:22.949Z,20.85
2017-04-30T11:48:50.467Z,21.11
2017-04-30T11:51:17.981Z,21.17
2017-04-30T11:53:45.567Z,21.15
2017-04-30T11:56:13.087Z,21.42
2017-04-30T11:58:40.943Z,21.17
2017-04-30T12:01:08.465Z,21.33
2017-04-30T12:03:36.060Z,21.30
2017-04-30T12:06:03.787Z,21.45
2017-04-30T12:08:31.291Z,21.56
2017-04-30T12:10:59.067Z,21.29
2017-04-30T12:13:26.589Z,21.17
2017-04-30T12:15:54.183Z,21.05
2017-04-30T12:18:21.758Z,20.84
2017-04-30T12:20:49.292Z,20.56
2017-04-30T12:23:16.979Z,20.71
2017-04-30T12:25:44.618Z,20.83
2017-04-30T12:28:12.159Z,20.98
2017-04-30T12:30:39.720Z,20.90
2017-04-30T12:33:07.240Z,20.88
2017-04-30T12:35:34.944Z,20.99
2017-04-30T12:38:02.459Z,21.07
2017-04-30T12:40:29.970Z,21.47
2017-04-30T12:42:57.589Z,21.58
2017-04-30T12:45:25.124Z,21.84
2017-04-30T12:47:52.840Z,21.99
2017-04-30T12:50:20.380Z,22.32
2017-04-30T12:52:47.922Z,22.00
2017-04-30T12:55:15.496Z,22.14
2017-04-30T12:57:43.083Z,22.35
2017-04-30T13:00:10.849Z,22.44
2017-04-30T13:02:38.410Z,22.27
2017-04-30T13:05:05.924Z,22.22
2017-04-30T13:07:33.478Z,22.28
2017-04-30T13:10:01.048Z,22.22
2017-04-30T13:12:28.596Z,22.28
2017-04-30T13:14:56.148Z,22.19
2017-04-30T13:17:23.967Z,22.06
2017-04-30T13:19:51.497Z,22.29
2017-04-30T13:22:19.015Z,22.40
2017-04-30T13:24:46.567Z,22.60
2017-04-30T13:27:14.143Z,22.56
2017-04-30T13:29:41.699Z,23.01
2017-04-30T13:32:09.214Z,22.76
2017-04-30T13:34:36.964Z,23.04
2017-04-30T13:37:04.507Z,22.71
2017-04-30T13:39:32.018Z,22.76
2017-04-30T13:41:59.584Z,22.84
2017-04-30T13:44:27.095Z,23.15
2017-04-30T13:46:55.484Z,23.12
2017-04-30T13:49:23.000Z,23.18
2017-04-30T13:51:50.791Z,23.43
2017-04-30T13:54:18.320Z,23.44
2017-04-30T13:56:45.848Z,23.67
2017-04-30T13:59:13.447Z,23.66
2017-04-30T14:01:40.965Z,23.82
2017-04-30T14:04:08.727Z,23.92
2017-04-30T14:06:36.259Z,24.02
2017-04-30T14:09:03.906Z,23.62
2017-04-30T14:11:31.480Z,24.21
2017-04-30T14:13:59.027Z,24.49
2017-04-30T14:16:26.904Z,24.91
2017-04-30T14:18:54.474Z,25.40
2017-04-30T14:21:21.991Z,24.92
2017-04-30T14:23:49.591Z,25.10
2017-04-30T14:26:17.106Z,25.11
2017-04-30T14:28:44.891Z,23.98
2017-04-30T14:31:12.439Z,24.12
2017-04-30T14:33:39.978Z,24.48
2017-04-30T14:36:07.569Z,24.20
2017-04-30T14:38:35.100Z,25.03
2017-04-30T14:41:02.675Z,24.94
2017-04-30T14:43:30.217Z,25.47
2017-04-30T14:45:57.750Z,25.35
2017-04-30T14:48:25.340Z,25.14
2017-04-30T14:50:52.886Z,24.34
2017-04-30T14:53:20.629Z,23.90
2017-04-30T14:55:48.177Z,23.82
2017-04-30T14:58:15.744Z,24.17
2017-04-30T15:00:43.377Z,23.91
2017-04-30T15:03:10.902Z,24.05
2017-04-30T15:05:38.781Z,23.72
2017-04-30T15:08:06.313Z,23.86
2017-04-30T15:10:33.847Z,23.75
2017-04-30T15:13:01.400Z,23.60
2017-04-30T15:15:28.964Z,23.18
2017-04-30T15:17:56.521Z,23.31
2017-04-30T15:20:25.893Z,23.66
2017-04-30T15:22:53.446Z,23.56
2017-04-30T15:25:21.054Z,23.55
2017-04-30T15:27:48.636Z,23.46
2017-04-30T15:30:16.655Z,23.24
2017-04-30T15:32:44.191Z,23.35
2017-04-30T15:35:11.723Z,23.48
2017-04-30T15:37:39.325Z,23.53
2017-04-30T15:40:06.856Z,23.55
2017-04-30T15:42:34.393Z,23.50
2017-04-30T15:45:01.971Z,23.42
2017-04-30T15:47:29.489Z,23.69
2017-04-30T15:49:57.056Z,23.58
2017-04-30T15:52:24.623Z,23.71
2017-04-30T15:54:52.631Z,23.30
2017-04-30T15:57:21.012Z,23.16
2017-04-30T15:59:48.552Z,22.68
2017-04-30T16:02:16.395Z,23.01
2017-04-30T16:04:43.925Z,23.26
2017-04-30T16:07:11.462Z,23.04
2017-04-30T16:09:39.186Z,23.06
2017-04-30T16:12:06.711Z,23.05
2017-04-30T16:14:34.310Z,23.23
2017-04-30T16:17:01.884Z,23.27
2017-04-30T16:19:29.497Z,23.28
2017-04-30T16:21:57.412Z,23.14
2017-04-30T16:24:24.995Z,23.09
2017-04-30T16:26:52.538Z,22.85
2017-04-30T16:29:20.265Z,23.09
2017-04-30T16:31:47.823Z,22.84
2017-04-30T16:34:15.696Z,22.88
2017-04-30T16:36:43.229Z,22.66
2017-04-30T16:39:10.788Z,22.55
2017-04-30T16:41:38.352Z,22.53
2017-04-30T16:44:05.884Z,22.96
2017-04-30T16:46:33.609Z,22.88
2017-04-30T16:49:01.212Z,22.95
2017-04-30T16:51:28.742Z,22.92
2017-04-30T16:53:56.316Z,22.75
2017-04-30T16:56:23.843Z,22.63
2017-04-30T16:58:51.424Z,22.54
2017-04-30T17:01:18.971Z,22.37
2017-04-30T17:03:46.929Z,22.38
2017-04-30T17:06:14.565Z,22.25
2017-04-30T17:08:42.135Z,22.24
2017-04-30T17:11:09.765Z,22.34
2017-04-30T17:13:37.308Z,22.04
2017-04-30T17:16:04.923Z,22.25
2017-04-30T17:18:32.508Z,22.41
2017-04-30T17:21:00.647Z,22.35
2017-04-30T17:23:28.192Z,22.34
2017-04-30T17:25:55.941Z,22.36
2017-04-30T17:28:23.494Z,22.40
2017-04-30T17:30:51.082Z,22.56
2017-04-30T17:33:18.656Z,22.57
2017-04-30T17:35:46.201Z,22.60
2017-04-30T17:38:13.773Z,22.47
2017-04-30T17:40:41.360Z,22.87
2017-04-30T17:43:09.102Z,22.87
2017-04-30T17:45:36.639Z,22.71
2017-04-30T17:48:04.211Z,22.88
2017-04-30T17:50:31.808Z,22.89
2017-04-30T17:52:59.396Z,22.68
2017-04-30T17:55:27.111Z,22.50
2017-04-30T17:57:54.701Z,22.22
2017-04-30T18:00:22.287Z,21.72
2017-04-30T18:02:49.878Z,21.48
2017-04-30T18:05:17.486Z,21.13
2017-04-30T18:07:45.499Z,21.07
2017-04-30T18:10:13.068Z,20.92
2017-04-30T18:12:40.603Z,20.90
2017-04-30T18:15:08.199Z,20.77
2017-04-30T18:17:35.727Z,20.73
2017-04-30T18:20:03.643Z,20.67
2017-04-30T18:22:31.163Z,20.59
2017-04-30T18:24:58.690Z,20.52
2017-04-30T18:27:26.272Z,20.48
2017-04-30T18:29:53.794Z,20.40
2017-04-30T18:32:21.388Z,20.36
2017-04-30T18:34:48.995Z,20.32
2017-04-30T18:37:16.518Z,20.29
2017-04-30T18:39:44.162Z,20.26
2017-04-30T18:42:11.695Z,20.15
2017-04-30T18:44:39.216Z,19.88
2017-04-30T18:47:06.790Z,20.07
2017-04-30T18:49:34.355Z,19.93
2017-04-30T18:52:02.070Z,20.02
2017-04-30T18:54:29.607Z,19.92
2017-04-30T18:56:57.167Z,19.82
2017-04-30T18:59:24.766Z,19.70
2017-04-30T19:01:52.387Z,19.74
2017-04-30T19:04:20.384Z,19.68
2017-04-30T19:06:47.917Z,19.73
2017-04-30T19:09:15.482Z,19.81
2017-04-30T19:11:43.019Z,19.82
2017-04-30T19:14:10.755Z,19.75
2017-04-30T19:16:38.460Z,19.73
2017-04-30T19:19:05.984Z,19.65
2017-04-30T19:21:33.507Z,19.47
2017-04-30T19:24:01.054Z,19.48
2017-04-30T19:26:28.590Z,19.47
2017-04-30T19:28:56.167Z,19.42
2017-04-30T19:31:23.681Z,19.40
2017-04-30T19:33:51.422Z,19.42
2017-04-30T19:36:18.950Z,19.37
2017-04-30T19:38:46.501Z,19.30
2017-04-30T19:41:14.087Z,19.29
2017-04-30T19:43:41.630Z,19.12
2017-04-30T19:46:09.211Z,19.12
2017-04-30T19:48:36.747Z,19.13
2017-04-30T19:51:04.473Z,19.02
2017-04-30T19:53:32.032Z,18.87
2017-04-30T19:55:59.571Z,18.83
2017-04-30T19:58:27.153Z,18.80
2017-04-30T20:00:54.707Z,18.81
2017-04-30T20:03:22.436Z,18.67
2017-04-30T20:05:50.004Z,18.63
2017-04-30T20:08:17.540Z,18.71
2017-04-30T20:10:45.151Z,18.65
2017-04-30T20:13:12.700Z,18.56
2017-04-30T20:15:40.527Z,18.53
2017-04-30T20:18:08.074Z,18.60
2017-04-30T20:20:35.617Z,18.63
2017-04-30T20:23:03.241Z,18.70
2017-04-30T20:25:30.769Z,18.63
2017-04-30T20:27:58.632Z,18.59
2017-04-30T20:30:26.247Z,18.47
2017-04-30T20:32:53.804Z,18.48
2017-04-30T20:35:21.438Z,18.34
2017-04-30T20:37:49.000Z,18.33
2017-04-30T20:40:16.567Z,18.24
2017-04-30T20:42:44.150Z,18.20
2017-04-30T20:45:11.723Z,18.19
2017-04-30T20:47:39.279Z,18.12
2017-04-30T20:50:07.048Z,18.04
2017-04-30T20:52:34.566Z,18.04
2017-04-30T20:55:02.085Z,17.99
2017-04-30T20:57:29.644Z,18.00
2017-04-30T20:59:57.156Z,17.86
2017-04-30T21:02:25.121Z,17.92
2017-04-30T21:04:52.656Z,17.85
2017-04-30T21:07:20.197Z,17.86
2017-04-30T21:09:47.811Z,17.77
2017-04-30T21:12:15.432Z,17.78
2017-04-30T21:14:43.251Z,17.77
2017-04-30T21:17:10.809Z,17.71
2017-04-30T21:19:38.366Z,17.61
2017-04-30T21:22:05.960Z,17.63
2017-04-30T21:24:33.481Z,17.62
2017-04-30T21:27:01.244Z,17.55
2017-04-30T21:29:28.791Z,17.66
2017-04-30T21:31:56.367Z,17.63
2017-04-30T21:34:23.961Z,17.63
2017-04-30T21:36:51.507Z,17.54
2017-04-30T21:39:19.113Z,17.51
2017-04-30T21:41:46.666Z,17.57
2017-04-30T21:44:14.371Z,17.58
2017-04-30T21:46:41.915Z,17.55
2017-04-30T21:49:09.466Z,17.41
2017-04-30T21:51:37.036Z,17.36
2017-04-30T21:54:04.605Z,17.37
2017-04-30T21:56:32.251Z,17.30
2017-04-30T21:58:59.786Z,17.28
2017-04-30T22:01:27.532Z,17.29
2017-04-30T22:03:55.146Z,17.11
2017-04-30T22:06:22.793Z,17.25
2017-04-30T22:08:50.370Z,17.28
2017-04-30T22:11:17.935Z,17.19
2017-04-30T22:13:45.512Z,17.17
2017-04-30T22:16:13.146Z,17.04
2017-04-30T22:18:40.761Z,17.10
2017-04-30T22:21:08.301Z,17.04
2017-04-30T22:23:35.860Z,17.01
2017-04-30T22:26:03.433Z,17.04
2017-04-30T22:28:30.950Z,17.00
2017-04-30T22:30:58.673Z,16.98
2017-04-30T22:33:26.192Z,16.85
2017-04-30T22:35:53.740Z,16.84
2017-04-30T22:38:21.296Z,16.85
2017-04-30T22:40:48.834Z,16.74
2017-04-30T22:43:16.473Z,16.79
2017-04-30T22:45:44.064Z,16.77
2017-04-30T22:48:11.900Z,16.82
2017-04-30T22:50:39.415Z,16.80
2017-04-30T22:53:06.936Z,16.83
2017-04-30T22:55:34.499Z,16.68
2017-04-30T22:58:02.063Z,16.71
2017-04-30T23:00:29.644Z,16.73
2017-04-30T23:02:57.151Z,16.65
2017-04-30T23:05:24.721Z,16.64
2017-04-30T23:07:52.293Z,16.70
2017-04-30T23:10:19.904Z,16.63
2017-04-30T23:12:47.548Z,16.62
2017-04-30T23:15:15.108Z,16.52
2017-04-30T23:17:42.629Z,16.58
2017-04-30T23:20:10.401Z,16.55
2017-04-30T23:22:37.927Z,16.60
2017-04-30T23:25:05.816Z,16.60
2017-04-30T23:27:33.361Z,16.58
2017-04-30T23:30:00.889Z,16.49
2017-04-30T23:32:28.492Z,16.48
2017-04-30T23:34:56.099Z,16.37
2017-04-30T23:37:23.676Z,16.54
2017-04-30T23:39:51.224Z,16.41
2017-04-30T23:42:18.976Z,16.35
2017-04-30T23:44:46.509Z,16.43
2017-04-30T23:47:14.093Z,16.52
2017-04-30T23:49:41.651Z,16.40
2017-04-30T23:52:09.176Z,16.41
2017-04-30T23:54:36.736Z,16.37
2017-04-30T23:57:04.249Z,16.35
2017-04-30T23:59:31.937Z,16.52
